sensor_id;sensor_type;location;lat;lon;timestamp;pressure;altitude;pressure_sealevel;temperature;humidity
24031;BME280;12240;51.142;22.486;2023-02-28T00:02:19;100740.22;;;-3.62;100.00
24031;BME280;12240;51.142;22.486;2023-02-28T00:04:48;100739.41;;;-3.64;100.00
24031;BME280;12240;51.142;22.486;2023-02-28T00:07:22;100692.34;;;-3.96;100.00
24031;BME280;12240;51.142;22.486;2023-02-28T00:09:50;100689.03;;;-4.04;100.00
24031;BME280;12240;51.142;22.486;2023-02-28T00:12:18;100740.56;;;-3.78;100.00
24031;BME280;12240;51.142;22.486;2023-02-28T00:14:46;100738.88;;;-3.81;100.00
24031;BME280;12240;51.142;22.486;2023-02-28T00:17:15;100743.31;;;-3.86;100.00
24031;BME280;12240;51.142;22.486;2023-02-28T00:19:45;100733.84;;;-3.90;100.00
24031;BME280;12240;51.142;22.486;2023-02-28T00:22:14;100722.75;;;-3.98;100.00
24031;BME280;12240;51.142;22.486;2023-02-28T00:24:43;100743.31;;;-3.86;100.00
24031;BME280;12240;51.142;22.486;2023-02-28T00:27:11;100684.13;;;-4.19;100.00
24031;BME280;12240;51.142;22.486;2023-02-28T00:29:39;100740.75;;;-3.87;100.00
24031;BME280;12240;51.142;22.486;2023-02-28T00:32:07;100743.38;;;-3.89;100.00
24031;BME280;12240;51.142;22.486;2023-02-28T00:34:38;100739.06;;;-3.90;100.00
24031;BME280;12240;51.142;22.486;2023-02-28T00:37:07;100694.44;;;-4.14;100.00
24031;BME280;12240;51.142;22.486;2023-02-28T00:39:38;100743.47;;;-3.93;100.00
24031;BME280;12240;51.142;22.486;2023-02-28T00:42:07;100753.91;;;-3.95;100.00
24031;BME280;12240;51.142;22.486;2023-02-28T00:44:35;100746.97;;;-3.94;100.00
24031;BME280;12240;51.142;22.486;2023-02-28T00:47:04;100752.19;;;-3.97;100.00
24031;BME280;12240;51.142;22.486;2023-02-28T00:49:33;100705.00;;;-4.22;100.00
24031;BME280;12240;51.142;22.486;2023-02-28T00:52:02;100734.94;;;-4.01;100.00
24031;BME280;12240;51.142;22.486;2023-02-28T00:54:30;100650.09;;;-4.51;100.00
24031;BME280;12240;51.142;22.486;2023-02-28T00:56:59;100741.88;;;-4.02;100.00
24031;BME280;12240;51.142;22.486;2023-02-28T00:59:27;100755.88;;;-4.07;100.00
24031;BME280;12240;51.142;22.486;2023-02-28T01:01:55;100753.19;;;-4.03;100.00
24031;BME280;12240;51.142;22.486;2023-02-28T01:04:24;100695.66;;;-4.33;100.00
24031;BME280;12240;51.142;22.486;2023-02-28T01:06:52;100705.97;;;-4.27;100.00
24031;BME280;12240;51.142;22.486;2023-02-28T01:09:20;100738.31;;;-3.96;100.00
24031;BME280;12240;51.142;22.486;2023-02-28T01:11:48;100750.38;;;-3.91;100.00
24031;BME280;12240;51.142;22.486;2023-02-28T01:14:17;100705.84;;;-4.21;100.00
24031;BME280;12240;51.142;22.486;2023-02-28T01:16:46;100749.53;;;-3.93;100.00
24031;BME280;12240;51.142;22.486;2023-02-28T01:19:14;100745.34;;;-4.01;100.00
24031;BME280;12240;51.142;22.486;2023-02-28T01:21:42;100743.88;;;-4.16;100.00
24031;BME280;12240;51.142;22.486;2023-02-28T01:24:13;100738.94;;;-4.29;100.00
24031;BME280;12240;51.142;22.486;2023-02-28T01:26:41;100735.66;;;-4.39;100.00
24031;BME280;12240;51.142;22.486;2023-02-28T01:29:09;100698.13;;;-4.71;100.00
24031;BME280;12240;51.142;22.486;2023-02-28T01:31:37;100747.09;;;-4.49;100.00
24031;BME280;12240;51.142;22.486;2023-02-28T01:34:08;100722.16;;;-4.60;100.00
24031;BME280;12240;51.142;22.486;2023-02-28T01:36:36;100729.09;;;-4.59;100.00
24031;BME280;12240;51.142;22.486;2023-02-28T01:39:04;100731.66;;;-4.58;100.00
24031;BME280;12240;51.142;22.486;2023-02-28T01:41:34;100731.75;;;-4.64;100.00
24031;BME280;12240;51.142;22.486;2023-02-28T01:47:14;100744.72;;;-4.61;100.00
24031;BME280;12240;51.142;22.486;2023-02-28T01:49:43;100735.22;;;-4.63;100.00
24031;BME280;12240;51.142;22.486;2023-02-28T01:52:11;100711.16;;;-4.76;100.00
24031;BME280;12240;51.142;22.486;2023-02-28T01:54:55;100747.28;;;-4.59;100.00
24031;BME280;12240;51.142;22.486;2023-02-28T01:57:40;100754.25;;;-4.61;100.00
24031;BME280;12240;51.142;22.486;2023-02-28T02:00:14;100694.22;;;-4.98;100.00
24031;BME280;12240;51.142;22.486;2023-02-28T02:02:50;100749.06;;;-4.63;100.00
24031;BME280;12240;51.142;22.486;2023-02-28T02:05:22;100737.16;;;-4.76;100.00
24031;BME280;12240;51.142;22.486;2023-02-28T02:08:09;100756.16;;;-4.74;100.00
24031;BME280;12240;51.142;22.486;2023-02-28T02:10:48;100755.34;;;-4.78;100.00
24031;BME280;12240;51.142;22.486;2023-02-28T02:13:50;100560.72;;;-5.91;100.00
24031;BME280;12240;51.142;22.486;2023-02-28T02:17:08;100727.75;;;-4.85;100.00
24031;BME280;12240;51.142;22.486;2023-02-28T02:37:24;100722.28;;;-5.23;100.00
24031;BME280;12240;51.142;22.486;2023-02-28T02:40:07;100783.31;;;-4.93;100.00
24031;BME280;12240;51.142;22.486;2023-02-28T02:42:52;100779.88;;;-4.94;100.00
24031;BME280;12240;51.142;22.486;2023-02-28T02:45:32;100737.81;;;-5.18;100.00
24031;BME280;12240;51.142;22.486;2023-02-28T02:48:09;100729.22;;;-5.22;100.00
24031;BME280;12240;51.142;22.486;2023-02-28T02:50:50;100790.25;;;-4.92;100.00
24031;BME280;12240;51.142;22.486;2023-02-28T02:53:24;100791.94;;;-4.91;100.00
24031;BME280;12240;51.142;22.486;2023-02-28T02:55:56;100754.16;;;-5.12;100.00
24031;BME280;12240;51.142;22.486;2023-02-28T02:58:30;100765.28;;;-5.04;100.00
24031;BME280;12240;51.142;22.486;2023-02-28T03:01:01;100734.44;;;-5.23;100.00
24031;BME280;12240;51.142;22.486;2023-02-28T03:03:32;100737.84;;;-5.20;100.00
24031;BME280;12240;51.142;22.486;2023-02-28T03:06:03;100793.63;;;-4.87;100.00
24031;BME280;12240;51.142;22.486;2023-02-28T03:08:37;100798.78;;;-4.84;100.00
24031;BME280;12240;51.142;22.486;2023-02-28T03:11:12;100786.63;;;-4.82;100.00
24031;BME280;12240;51.142;22.486;2023-02-28T03:20:19;100788.09;;;-4.67;100.00
24031;BME280;12240;51.142;22.486;2023-02-28T03:23:19;100790.72;;;-4.69;100.00
24031;BME280;12240;51.142;22.486;2023-02-28T03:26:04;100728.13;;;-5.06;100.00
24031;BME280;12240;51.142;22.486;2023-02-28T03:31:58;100799.34;;;-4.65;100.00
24031;BME280;12240;51.142;22.486;2023-02-28T03:34:34;100759.81;;;-4.84;100.00
24031;BME280;12240;51.142;22.486;2023-02-28T03:37:11;100796.63;;;-4.58;100.00
24031;BME280;12240;51.142;22.486;2023-02-28T03:39:56;100750.28;;;-4.84;100.00
24031;BME280;12240;51.142;22.486;2023-02-28T03:42:32;100789.69;;;-4.59;100.00
24031;BME280;12240;51.142;22.486;2023-02-28T03:45:15;100787.09;;;-4.59;100.00
24031;BME280;12240;51.142;22.486;2023-02-28T03:48:35;100799.09;;;-4.49;100.00
24031;BME280;12240;51.142;22.486;2023-02-28T03:51:09;100801.66;;;-4.47;100.00
24031;BME280;12240;51.142;22.486;2023-02-28T03:53:59;100796.34;;;-4.41;100.00
24031;BME280;12240;51.142;22.486;2023-02-28T03:59:55;100804.59;;;-4.17;100.00
24031;BME280;12240;51.142;22.486;2023-02-28T04:02:25;100799.34;;;-4.14;100.00
24031;BME280;12240;51.142;22.486;2023-02-28T04:04:54;100806.09;;;-4.04;100.00
24031;BME280;12240;51.142;22.486;2023-02-28T04:07:22;100802.66;;;-4.06;100.00
24031;BME280;12240;51.142;22.486;2023-02-28T04:09:50;100803.50;;;-4.04;100.00
24031;BME280;12240;51.142;22.486;2023-02-28T04:12:19;100811.31;;;-4.05;100.00
24031;BME280;12240;51.142;22.486;2023-02-28T04:14:49;100744.53;;;-4.52;100.00
24031;BME280;12240;51.142;22.486;2023-02-28T04:17:17;100808.13;;;-4.21;100.00
24031;BME280;12240;51.142;22.486;2023-02-28T04:19:46;100760.22;;;-4.56;100.00
24031;BME280;12240;51.142;22.486;2023-02-28T04:22:14;100749.91;;;-4.61;100.00
24031;BME280;12240;51.142;22.486;2023-02-28T04:24:42;100810.72;;;-4.21;100.00
24031;BME280;12240;51.142;22.486;2023-02-28T04:27:10;100812.41;;;-4.17;100.00
24031;BME280;12240;51.142;22.486;2023-02-28T04:29:38;100813.19;;;-4.12;100.00
24031;BME280;12240;51.142;22.486;2023-02-28T04:32:07;100810.59;;;-4.12;100.00
24031;BME280;12240;51.142;22.486;2023-02-28T04:34:36;100805.47;;;-4.18;100.00
24031;BME280;12240;51.142;22.486;2023-02-28T04:37:04;100802.06;;;-4.21;100.00
24031;BME280;12240;51.142;22.486;2023-02-28T04:39:42;100746.50;;;-4.64;100.00
24031;BME280;12240;51.142;22.486;2023-02-28T04:42:11;100808.41;;;-4.36;100.00
24031;BME280;12240;51.142;22.486;2023-02-28T04:44:40;100820.56;;;-4.38;100.00
24031;BME280;12240;51.142;22.486;2023-02-28T04:47:08;100814.38;;;-4.31;100.00
24031;BME280;12240;51.142;22.486;2023-02-28T04:49:36;100810.94;;;-4.33;100.00
24031;BME280;12240;51.142;22.486;2023-02-28T04:52:04;100752.69;;;-4.71;100.00
24031;BME280;12240;51.142;22.486;2023-02-28T04:54:32;100818.00;;;-4.41;100.00
24031;BME280;12240;51.142;22.486;2023-02-28T04:57:00;100821.47;;;-4.42;100.00
24031;BME280;12240;51.142;22.486;2023-02-28T04:59:29;100817.19;;;-4.43;100.00
24031;BME280;12240;51.142;22.486;2023-02-28T05:01:58;100803.34;;;-4.45;100.00
24031;BME280;12240;51.142;22.486;2023-02-28T05:04:26;100781.03;;;-4.58;100.00
24031;BME280;12240;51.142;22.486;2023-02-28T05:06:54;100750.44;;;-4.94;100.00
24031;BME280;12240;51.142;22.486;2023-02-28T05:09:23;100776.47;;;-4.97;100.00
24031;BME280;12240;51.142;22.486;2023-02-28T05:11:51;100821.97;;;-4.72;100.00
24031;BME280;12240;51.142;22.486;2023-02-28T05:14:19;100828.78;;;-4.65;100.00
24031;BME280;12240;51.142;22.486;2023-02-28T05:16:47;100780.75;;;-4.96;100.00
24031;BME280;12240;51.142;22.486;2023-02-28T05:19:15;100779.06;;;-4.97;100.00
24031;BME280;12240;51.142;22.486;2023-02-28T05:21:52;100830.56;;;-4.67;100.00
24031;BME280;12240;51.142;22.486;2023-02-28T05:24:21;100824.53;;;-4.70;100.00
24031;BME280;12240;51.142;22.486;2023-02-28T05:26:53;100829.75;;;-4.72;100.00
24031;BME280;12240;51.142;22.486;2023-02-28T05:29:22;100802.28;;;-4.88;100.00
24031;BME280;12240;51.142;22.486;2023-02-28T05:31:50;100829.03;;;-4.80;100.00
24031;BME280;12240;51.142;22.486;2023-02-28T05:34:19;100823.88;;;-4.85;100.00
24031;BME280;12240;51.142;22.486;2023-02-28T05:36:47;100820.47;;;-4.88;100.00
24031;BME280;12240;51.142;22.486;2023-02-28T05:39:15;100828.22;;;-4.84;100.00
24031;BME280;12240;51.142;22.486;2023-02-28T05:41:44;100795.63;;;-5.04;100.00
24031;BME280;12240;51.142;22.486;2023-02-28T05:44:12;100823.75;;;-4.76;100.00
24031;BME280;12240;51.142;22.486;2023-02-28T05:46:40;100832.31;;;-4.69;100.00
24031;BME280;12240;51.142;22.486;2023-02-28T05:49:08;100772.25;;;-5.04;100.00
24031;BME280;12240;51.142;22.486;2023-02-28T05:51:37;100839.91;;;-4.57;100.00
24031;BME280;12240;51.142;22.486;2023-02-28T05:54:08;100838.06;;;-4.47;100.00
24031;BME280;12240;51.142;22.486;2023-02-28T05:56:36;100842.16;;;-4.34;100.00
24031;BME280;12240;51.142;22.486;2023-02-28T05:59:06;100849.75;;;-4.21;100.00
24031;BME280;12240;51.142;22.486;2023-02-28T06:01:45;100848.59;;;-4.05;100.00
24031;BME280;12240;51.142;22.486;2023-02-28T06:04:19;100857.03;;;-3.91;100.00
24031;BME280;12240;51.142;22.486;2023-02-28T06:06:59;100857.50;;;-3.69;100.00
24031;BME280;12240;51.142;22.486;2023-02-28T06:09:27;100859.00;;;-3.58;100.00
24031;BME280;12240;51.142;22.486;2023-02-28T06:11:59;100806.59;;;-3.84;100.00
24031;BME280;12240;51.142;22.486;2023-02-28T06:14:28;100816.94;;;-3.81;100.00
24031;BME280;12240;51.142;22.486;2023-02-28T06:16:56;100880.50;;;-3.46;100.00
24031;BME280;12240;51.142;22.486;2023-02-28T06:19:26;100895.13;;;-3.39;100.00
24031;BME280;12240;51.142;22.486;2023-02-28T06:21:55;100870.84;;;-3.41;100.00
24031;BME280;12240;51.142;22.486;2023-02-28T06:24:26;100878.44;;;-3.29;100.00
24031;BME280;12240;51.142;22.486;2023-02-28T06:26:55;100776.22;;;-3.83;100.00
24031;BME280;12240;51.142;22.486;2023-02-28T06:29:24;100821.41;;;-3.43;100.00
24031;BME280;12240;51.142;22.486;2023-02-28T06:31:52;100881.22;;;-2.97;100.00
24031;BME280;12240;51.142;22.486;2023-02-28T06:34:20;100869.09;;;-2.98;100.00
24031;BME280;12240;51.142;22.486;2023-02-28T06:36:51;100891.34;;;-2.82;100.00
24031;BME280;12240;51.142;22.486;2023-02-28T06:39:19;100843.78;;;-2.92;100.00
24031;BME280;12240;51.142;22.486;2023-02-28T06:41:48;100852.69;;;-2.64;100.00
24031;BME280;12240;51.142;22.486;2023-02-28T06:44:23;100878.09;;;-2.35;100.00
24031;BME280;12240;51.142;22.486;2023-02-28T06:46:52;100881.38;;;-2.27;100.00
24031;BME280;12240;51.142;22.486;2023-02-28T06:49:20;100881.94;;;-2.14;100.00
24031;BME280;12240;51.142;22.486;2023-02-28T06:51:48;100884.22;;;-2.01;100.00
24031;BME280;12240;51.142;22.486;2023-02-28T06:54:19;100890.03;;;-1.90;100.00
24031;BME280;12240;51.142;22.486;2023-02-28T06:56:47;100832.19;;;-2.07;100.00
24031;BME280;12240;51.142;22.486;2023-02-28T06:59:16;100860.25;;;-1.81;100.00
24031;BME280;12240;51.142;22.486;2023-02-28T07:01:45;100868.44;;;-1.63;100.00
24031;BME280;12240;51.142;22.486;2023-02-28T07:04:13;100877.59;;;-1.47;100.00
24031;BME280;12240;51.142;22.486;2023-02-28T07:06:41;100864.09;;;-1.32;100.00
24031;BME280;12240;51.142;22.486;2023-02-28T07:09:11;100865.25;;;-1.11;100.00
24031;BME280;12240;51.142;22.486;2023-02-28T07:11:39;100885.81;;;-0.99;100.00
24031;BME280;12240;51.142;22.486;2023-02-28T07:14:09;100874.53;;;-0.72;100.00
24031;BME280;12240;51.142;22.486;2023-02-28T07:16:37;100876.47;;;-0.49;100.00
24031;BME280;12240;51.142;22.486;2023-02-28T07:19:05;100826.31;;;-0.63;100.00
24031;BME280;12240;51.142;22.486;2023-02-28T07:21:33;100827.69;;;-0.50;100.00
24031;BME280;12240;51.142;22.486;2023-02-28T07:24:01;100866.66;;;-0.15;100.00
24031;BME280;12240;51.142;22.486;2023-02-28T07:26:29;100866.66;;;0.11;100.00
24031;BME280;12240;51.142;22.486;2023-02-28T07:28:57;100828.09;;;-0.36;100.00
24031;BME280;12240;51.142;22.486;2023-02-28T07:31:26;100849.03;;;-0.10;100.00
24031;BME280;12240;51.142;22.486;2023-02-28T07:33:54;100840.88;;;-0.01;100.00
24031;BME280;12240;51.142;22.486;2023-02-28T07:36:24;100827.59;;;0.05;100.00
24031;BME280;12240;51.142;22.486;2023-02-28T07:38:52;100835.75;;;-0.04;100.00
24031;BME280;12240;51.142;22.486;2023-02-28T07:41:22;100834.38;;;0.35;100.00
24031;BME280;12240;51.142;22.486;2023-02-28T07:43:54;100837.06;;;0.58;100.00
24031;BME280;12240;51.142;22.486;2023-02-28T07:46:23;100829.50;;;0.25;100.00
24031;BME280;12240;51.142;22.486;2023-02-28T07:48:51;100833.41;;;0.13;100.00
24031;BME280;12240;51.142;22.486;2023-02-28T07:51:22;100837.69;;;0.40;100.00
24031;BME280;12240;51.142;22.486;2023-02-28T07:53:51;100745.16;;;-0.10;100.00
24031;BME280;12240;51.142;22.486;2023-02-28T07:56:19;100819.03;;;0.49;100.00
24031;BME280;12240;51.142;22.486;2023-02-28T07:58:47;100825.38;;;0.67;100.00
24031;BME280;12240;51.142;22.486;2023-02-28T08:01:16;100817.41;;;1.16;100.00
24031;BME280;12240;51.142;22.486;2023-02-28T08:03:45;100788.66;;;1.13;100.00
24031;BME280;12240;51.142;22.486;2023-02-28T08:06:22;100810.06;;;1.24;100.00
24031;BME280;12240;51.142;22.486;2023-02-28T08:08:52;100741.84;;;1.02;100.00
24031;BME280;12240;51.142;22.486;2023-02-28T08:11:20;100744.28;;;0.62;100.00
24031;BME280;12240;51.142;22.486;2023-02-28T08:13:49;100801.53;;;1.19;100.00
24031;BME280;12240;51.142;22.486;2023-02-28T08:16:17;100774.81;;;1.09;100.00
24031;BME280;12240;51.142;22.486;2023-02-28T08:18:51;100799.25;;;1.55;100.00
24031;BME280;12240;51.142;22.486;2023-02-28T08:21:20;100786.03;;;1.35;100.00
24031;BME280;12240;51.142;22.486;2023-02-28T08:23:50;100793.97;;;1.33;100.00
24031;BME280;12240;51.142;22.486;2023-02-28T08:26:19;100803.44;;;1.37;100.00
24031;BME280;12240;51.142;22.486;2023-02-28T08:28:48;100715.03;;;1.39;100.00
24031;BME280;12240;51.142;22.486;2023-02-28T08:31:17;100779.72;;;2.02;100.00
24031;BME280;12240;51.142;22.486;2023-02-28T08:33:46;100781.59;;;2.20;100.00
24031;BME280;12240;51.142;22.486;2023-02-28T08:36:17;100785.66;;;2.66;100.00
24031;BME280;12240;51.142;22.486;2023-02-28T08:38:45;100766.09;;;1.31;100.00
24031;BME280;12240;51.142;22.486;2023-02-28T08:41:14;100726.94;;;1.68;100.00
24031;BME280;12240;51.142;22.486;2023-02-28T08:43:42;100731.41;;;2.45;100.00
24031;BME280;12240;51.142;22.486;2023-02-28T08:46:14;100771.84;;;2.22;100.00
24031;BME280;12240;51.142;22.486;2023-02-28T08:48:43;100773.09;;;1.93;100.00
24031;BME280;12240;51.142;22.486;2023-02-28T08:51:16;100737.84;;;2.58;100.00
24031;BME280;12240;51.142;22.486;2023-02-28T08:53:46;100725.03;;;2.50;100.00
24031;BME280;12240;51.142;22.486;2023-02-28T08:56:17;100772.75;;;2.98;100.00
24031;BME280;12240;51.142;22.486;2023-02-28T08:58:47;100770.34;;;3.12;100.00
24031;BME280;12240;51.142;22.486;2023-02-28T09:01:22;100769.59;;;3.27;100.00
24031;BME280;12240;51.142;22.486;2023-02-28T09:03:51;100765.78;;;3.51;100.00
24031;BME280;12240;51.142;22.486;2023-02-28T09:06:23;100770.19;;;3.15;100.00
24031;BME280;12240;51.142;22.486;2023-02-28T09:08:52;100773.53;;;2.82;100.00
24031;BME280;12240;51.142;22.486;2023-02-28T09:11:20;100771.59;;;2.28;100.00
24031;BME280;12240;51.142;22.486;2023-02-28T09:13:49;100775.59;;;2.36;100.00
24031;BME280;12240;51.142;22.486;2023-02-28T09:16:17;100771.47;;;2.11;100.00
24031;BME280;12240;51.142;22.486;2023-02-28T09:18:46;100763.75;;;2.06;100.00
24031;BME280;12240;51.142;22.486;2023-02-28T09:21:17;100789.59;;;2.17;100.00
24031;BME280;12240;51.142;22.486;2023-02-28T09:23:48;100772.72;;;2.02;100.00
24031;BME280;12240;51.142;22.486;2023-02-28T09:26:20;100769.75;;;2.10;100.00
24031;BME280;12240;51.142;22.486;2023-02-28T09:28:51;100786.03;;;1.98;100.00
24031;BME280;12240;51.142;22.486;2023-02-28T09:31:27;100771.00;;;1.81;100.00
24031;BME280;12240;51.142;22.486;2023-02-28T09:33:57;100732.31;;;1.65;100.00
24031;BME280;12240;51.142;22.486;2023-02-28T09:36:26;100778.03;;;2.01;100.00
24031;BME280;12240;51.142;22.486;2023-02-28T09:39:11;100787.47;;;1.85;100.00
24031;BME280;12240;51.142;22.486;2023-02-28T09:41:47;100734.06;;;1.64;100.00
24031;BME280;12240;51.142;22.486;2023-02-28T09:44:36;100782.09;;;1.88;100.00
24031;BME280;12240;51.142;22.486;2023-02-28T09:49:45;100742.69;;;1.68;100.00
24031;BME280;12240;51.142;22.486;2023-02-28T09:52:31;100776.72;;;1.91;100.00
24031;BME280;12240;51.142;22.486;2023-02-28T09:57:42;100783.16;;;1.84;100.00
24031;BME280;12240;51.142;22.486;2023-02-28T10:00:33;100779.88;;;1.99;100.00
24031;BME280;12240;51.142;22.486;2023-02-28T10:03:50;100763.94;;;2.23;100.00
24031;BME280;12240;51.142;22.486;2023-02-28T10:06:29;100726.38;;;2.40;100.00
24031;BME280;12240;51.142;22.486;2023-02-28T10:09:11;100779.38;;;2.88;100.00
24031;BME280;12240;51.142;22.486;2023-02-28T10:11:44;100774.31;;;3.21;100.00
24031;BME280;12240;51.142;22.486;2023-02-28T10:14:21;100706.53;;;3.43;100.00
24031;BME280;12240;51.142;22.486;2023-02-28T10:16:58;100744.44;;;4.26;100.00
24031;BME280;12240;51.142;22.486;2023-02-28T10:20:00;100708.25;;;4.45;100.00
24031;BME280;12240;51.142;22.486;2023-02-28T10:23:03;100706.47;;;4.45;100.00
24031;BME280;12240;51.142;22.486;2023-02-28T10:25:38;100743.47;;;4.92;100.00
24031;BME280;12240;51.142;22.486;2023-02-28T10:28:12;100680.72;;;4.97;100.00
24031;BME280;12240;51.142;22.486;2023-02-28T10:30:53;100736.81;;;5.01;99.35
24031;BME280;12240;51.142;22.486;2023-02-28T10:33:33;100722.19;;;4.80;97.86
24031;BME280;12240;51.142;22.486;2023-02-28T10:36:05;100666.94;;;3.96;95.96
24031;BME280;12240;51.142;22.486;2023-02-28T10:38:39;100735.00;;;4.70;99.32
24031;BME280;12240;51.142;22.486;2023-02-28T10:41:31;100744.91;;;4.82;99.21
24031;BME280;12240;51.142;22.486;2023-02-28T10:44:22;100668.19;;;3.20;94.67
24031;BME280;12240;51.142;22.486;2023-02-28T10:46:51;100743.22;;;3.99;98.56
24031;BME280;12240;51.142;22.486;2023-02-28T10:49:22;100716.94;;;3.97;97.72
24031;BME280;12240;51.142;22.486;2023-02-28T10:52:00;100687.63;;;4.84;100.00
24031;BME280;12240;51.142;22.486;2023-02-28T10:54:35;100720.03;;;4.70;96.11
24031;BME280;12240;51.142;22.486;2023-02-28T10:57:20;100721.59;;;5.06;99.87
24031;BME280;12240;51.142;22.486;2023-02-28T10:59:53;100698.81;;;4.56;97.39
24031;BME280;12240;51.142;22.486;2023-02-28T11:02:37;100705.78;;;4.90;98.59
24031;BME280;12240;51.142;22.486;2023-02-28T11:05:35;100700.09;;;5.43;99.09
24031;BME280;12240;51.142;22.486;2023-02-28T11:08:15;100677.34;;;4.95;95.03
24031;BME280;12240;51.142;22.486;2023-02-28T11:10:57;100675.34;;;4.52;92.98
24031;BME280;12240;51.142;22.486;2023-02-28T11:13:32;100681.91;;;5.07;96.01
24031;BME280;12240;51.142;22.486;2023-02-28T11:16:11;100677.63;;;4.58;92.00
24031;BME280;12240;51.142;22.486;2023-02-28T11:18:55;100682.31;;;4.53;92.75
24031;BME280;12240;51.142;22.486;2023-02-28T11:21:38;100680.50;;;5.47;99.09
24031;BME280;12240;51.142;22.486;2023-02-28T11:26:59;100645.25;;;5.92;96.17
24031;BME280;12240;51.142;22.486;2023-02-28T11:29:31;100620.59;;;5.91;94.00
24031;BME280;12240;51.142;22.486;2023-02-28T11:32:17;100669.06;;;6.20;93.17
24031;BME280;12240;51.142;22.486;2023-02-28T11:37:31;100619.72;;;6.61;93.09
24031;BME280;12240;51.142;22.486;2023-02-28T11:40:00;100609.06;;;6.48;90.11
24031;BME280;12240;51.142;22.486;2023-02-28T11:42:55;100658.53;;;6.74;88.94
24031;BME280;12240;51.142;22.486;2023-02-28T11:48:45;100665.09;;;6.69;91.85
24031;BME280;12240;51.142;22.486;2023-02-28T11:51:27;100610.91;;;5.32;85.80
24031;BME280;12240;51.142;22.486;2023-02-28T11:54:23;100677.88;;;6.34;90.14
24031;BME280;12240;51.142;22.486;2023-02-28T12:05:34;100671.31;;;7.08;93.61
24031;BME280;12240;51.142;22.486;2023-02-28T12:11:48;100652.75;;;6.82;87.70
24031;BME280;12240;51.142;22.486;2023-02-28T12:26:32;100593.19;;;6.89;89.25
24031;BME280;12240;51.142;22.486;2023-02-28T12:34:27;100620.16;;;7.08;83.58
24031;BME280;12240;51.142;22.486;2023-02-28T12:37:00;100586.72;;;7.20;84.41
24031;BME280;12240;51.142;22.486;2023-02-28T12:39:44;100618.84;;;7.67;83.65
24031;BME280;12240;51.142;22.486;2023-02-28T12:42:23;100575.31;;;7.44;83.46
24031;BME280;12240;51.142;22.486;2023-02-28T12:45:05;100589.47;;;7.82;83.50
24031;BME280;12240;51.142;22.486;2023-02-28T12:47:40;100556.06;;;7.03;80.92
24031;BME280;12240;51.142;22.486;2023-02-28T12:50:11;100565.47;;;6.13;82.50
24031;BME280;12240;51.142;22.486;2023-02-28T12:58:39;100600.97;;;6.64;84.55
24031;BME280;12240;51.142;22.486;2023-02-28T13:10:11;100602.47;;;7.48;83.40
24031;BME280;12240;51.142;22.486;2023-02-28T13:12:50;100599.16;;;6.38;81.55
24031;BME280;12240;51.142;22.486;2023-02-28T13:15:27;100582.13;;;6.42;83.00
24031;BME280;12240;51.142;22.486;2023-02-28T13:18:00;100586.13;;;7.41;87.06
24031;BME280;12240;51.142;22.486;2023-02-28T13:20:38;100571.09;;;7.79;86.70
24031;BME280;12240;51.142;22.486;2023-02-28T13:26:08;100564.84;;;8.05;84.95
24031;BME280;12240;51.142;22.486;2023-02-28T13:31:22;100566.44;;;7.06;78.81
24031;BME280;12240;51.142;22.486;2023-02-28T13:36:32;100575.16;;;7.21;81.60
24031;BME280;12240;51.142;22.486;2023-02-28T13:56:03;100558.16;;;7.75;81.59
24031;BME280;12240;51.142;22.486;2023-02-28T14:07:23;100570.81;;;6.40;80.89
24031;BME280;12240;51.142;22.486;2023-02-28T14:10:15;100572.41;;;6.42;82.19
24031;BME280;12240;51.142;22.486;2023-02-28T14:16:08;100566.53;;;6.78;84.10
24031;BME280;12240;51.142;22.486;2023-02-28T14:18:42;100517.53;;;6.85;83.03
24031;BME280;12240;51.142;22.486;2023-02-28T14:21:31;100563.38;;;6.59;80.60
24031;BME280;12240;51.142;22.486;2023-02-28T14:27:21;100552.59;;;5.79;80.80
24031;BME280;12240;51.142;22.486;2023-02-28T14:36:33;100575.34;;;4.63;81.53
24031;BME280;12240;51.142;22.486;2023-02-28T14:39:14;100573.66;;;4.78;82.76
24031;BME280;12240;51.142;22.486;2023-02-28T14:41:44;100569.16;;;5.09;82.83
24031;BME280;12240;51.142;22.486;2023-02-28T14:47:01;100565.31;;;5.58;84.01
24031;BME280;12240;51.142;22.486;2023-02-28T14:49:43;100513.28;;;5.31;82.62
24031;BME280;12240;51.142;22.486;2023-02-28T14:52:23;100547.66;;;5.73;82.47
24031;BME280;12240;51.142;22.486;2023-02-28T14:55:12;100545.88;;;5.73;81.42
24031;BME280;12240;51.142;22.486;2023-02-28T14:57:56;100542.53;;;6.00;83.25
24031;BME280;12240;51.142;22.486;2023-02-28T15:00:30;100538.00;;;6.02;82.31
24031;BME280;12240;51.142;22.486;2023-02-28T15:03:01;100538.19;;;5.84;81.48
24031;BME280;12240;51.142;22.486;2023-02-28T15:05:33;100488.88;;;5.27;81.41
24031;BME280;12240;51.142;22.486;2023-02-28T15:08:15;100546.41;;;5.50;83.32
24031;BME280;12240;51.142;22.486;2023-02-28T15:11:11;100539.84;;;5.43;82.50
24031;BME280;12240;51.142;22.486;2023-02-28T15:13:50;100538.50;;;5.50;83.68
24031;BME280;12240;51.142;22.486;2023-02-28T15:16:59;100498.97;;;5.35;84.22
24031;BME280;12240;51.142;22.486;2023-02-28T15:19:28;100525.59;;;5.02;82.48
24031;BME280;12240;51.142;22.486;2023-02-28T15:22:06;100527.38;;;5.02;82.85
24031;BME280;12240;51.142;22.486;2023-02-28T15:24:39;100546.03;;;4.99;84.38
24031;BME280;12240;51.142;22.486;2023-02-28T15:27:32;100540.75;;;4.99;84.00
24031;BME280;12240;51.142;22.486;2023-02-28T15:30:21;100428.06;;;4.26;85.00
24031;BME280;12240;51.142;22.486;2023-02-28T15:33:21;100546.91;;;4.68;85.77
24031;BME280;12240;51.142;22.486;2023-02-28T15:35:50;100528.94;;;4.29;87.45